createdAt,value
2023-03-11T00:00:10.096Z,11.30
2023-03-11T00:05:37.380Z,10.17
2023-03-11T00:10:43.701Z,10.47
2023-03-11T00:15:51.173Z,10.78
2023-03-11T00:20:56.949Z,10.42
2023-03-11T00:26:03.237Z,10.53
2023-03-11T00:31:08.894Z,10.71
2023-03-11T00:36:23.878Z,10.92
2023-03-11T00:41:28.263Z,10.66
2023-03-11T00:46:33.859Z,10.07
2023-03-11T00:51:38.062Z,9.40
2023-03-11T00:56:42.752Z,9.13
2023-03-11T01:01:48.474Z,9.21
2023-03-11T01:06:52.806Z,10.03
2023-03-11T01:11:56.971Z,9.12
2023-03-11T01:17:02.813Z,9.59
2023-03-11T01:22:07.064Z,9.54
2023-03-11T01:27:11.791Z,9.34
2023-03-11T01:32:17.364Z,9.17
2023-03-11T01:37:21.459Z,9.31
2023-03-11T01:42:26.106Z,9.23
2023-03-11T01:47:40.884Z,9.01
2023-03-11T01:52:47.260Z,9.66
2023-03-11T01:57:54.379Z,9.27
2023-03-11T02:03:03.330Z,8.80
2023-03-11T02:08:08.461Z,9.13
2023-03-11T02:13:13.687Z,8.75
2023-03-11T02:18:21.253Z,8.59
2023-03-11T02:23:31.247Z,8.41
2023-03-11T02:28:40.882Z,8.62
2023-03-11T02:33:48.287Z,8.65
2023-03-11T02:38:52.721Z,8.62
2023-03-11T02:44:00.253Z,8.47
2023-03-11T02:49:07.397Z,8.80
2023-03-11T02:54:11.781Z,8.76
2023-03-11T02:59:17.705Z,9.09
2023-03-11T03:04:21.965Z,9.00
2023-03-11T03:09:26.354Z,9.27
2023-03-11T03:14:32.466Z,8.25
2023-03-11T03:19:36.814Z,8.39
2023-03-11T03:24:41.345Z,8.75
2023-03-11T03:29:47.108Z,8.39
2023-03-11T03:34:51.294Z,8.58
2023-03-11T03:39:56.309Z,9.18
2023-03-11T03:45:02.062Z,9.52
2023-03-11T03:50:08.342Z,8.77
2023-03-11T03:55:13.047Z,9.57
2023-03-11T04:00:19.911Z,8.83
2023-03-11T04:05:31.054Z,8.89
2023-03-11T04:10:35.234Z,8.83
2023-03-11T04:15:41.690Z,8.91
2023-03-11T04:20:46.629Z,8.22
2023-03-11T04:25:52.197Z,8.14
2023-03-11T04:30:58.156Z,7.84
2023-03-11T04:36:05.839Z,7.16
2023-03-11T04:41:11.252Z,7.40
2023-03-11T04:46:18.938Z,7.42
2023-03-11T04:51:23.261Z,7.16
2023-03-11T04:56:27.469Z,8.08
2023-03-11T05:01:33.270Z,7.90
2023-03-11T05:06:40.350Z,8.43
2023-03-11T05:11:45.449Z,7.85
2023-03-11T05:16:52.533Z,7.93
2023-03-11T05:21:56.700Z,7.47
2023-03-11T05:27:02.900Z,7.19
2023-03-11T05:32:09.442Z,7.97
2023-03-11T05:37:14.143Z,8.11
2023-03-11T05:42:20.304Z,7.46
2023-03-11T05:47:28.557Z,7.27
2023-03-11T05:52:34.515Z,7.14
2023-03-11T05:57:38.967Z,7.36
2023-03-11T06:02:45.131Z,6.74
2023-03-11T06:07:53.294Z,6.74
2023-03-11T06:12:59.698Z,7.02
2023-03-11T06:18:09.149Z,7.32
2023-03-11T06:23:13.359Z,7.87
2023-03-11T06:28:17.654Z,8.65
2023-03-11T06:33:25.944Z,8.16
2023-03-11T06:38:31.526Z,7.93
2023-03-11T06:43:36.855Z,6.85
2023-03-11T06:48:43.823Z,7.28
2023-03-11T06:53:50.712Z,6.65
2023-03-11T06:58:56.250Z,6.44
2023-03-11T07:04:04.625Z,6.70
2023-03-11T07:09:13.210Z,6.40
2023-03-11T07:14:20.857Z,6.69
2023-03-11T07:19:30.995Z,6.36
2023-03-11T07:24:35.746Z,6.12
2023-03-11T07:29:40.012Z,6.20
2023-03-11T07:34:45.492Z,6.02
2023-03-11T07:39:49.693Z,5.88
2023-03-11T07:44:54.165Z,5.57
2023-03-11T07:49:59.650Z,5.17
2023-03-11T07:55:04.275Z,5.09
2023-03-11T08:00:09.984Z,5.15
2023-03-11T08:05:20.879Z,5.01
2023-03-11T08:10:25.170Z,4.71
2023-03-11T08:15:29.324Z,4.99
2023-03-11T08:20:34.850Z,5.31
2023-03-11T08:25:40.471Z,5.22
2023-03-11T08:30:44.732Z,5.52
2023-03-11T08:35:51.100Z,4.32
2023-03-11T08:40:55.507Z,4.16
2023-03-11T08:46:02.235Z,4.16
2023-03-11T08:51:26.515Z,3.91
2023-03-11T08:56:31.398Z,4.44
2023-03-11T09:01:35.512Z,4.39
2023-03-11T09:06:43.461Z,4.37
2023-03-11T09:11:47.667Z,3.71
2023-03-11T09:16:51.751Z,3.28
2023-03-11T09:21:57.382Z,3.07
2023-03-11T09:27:01.755Z,3.03
2023-03-11T09:32:06.705Z,2.88
2023-03-11T09:37:12.292Z,2.92
2023-03-11T09:42:22.336Z,2.94
2023-03-11T09:47:38.407Z,2.50
2023-03-11T09:52:46.226Z,2.92
2023-03-11T09:57:50.802Z,2.92
2023-03-11T10:02:55.371Z,3.17
2023-03-11T10:08:26.273Z,3.09
2023-03-11T10:13:38.152Z,3.43
2023-03-11T10:18:51.681Z,3.35
2023-03-11T10:24:15.416Z,4.06
2023-03-11T10:29:27.306Z,3.43
2023-03-11T10:34:39.347Z,3.59
2023-03-11T10:39:48.856Z,3.71
2023-03-11T10:44:53.366Z,3.02
2023-03-11T10:49:57.738Z,2.84
2023-03-11T10:55:04.554Z,2.36
2023-03-11T11:00:12.642Z,2.68
2023-03-11T11:05:30.686Z,2.97
2023-03-11T11:10:38.117Z,2.99
2023-03-11T11:15:51.975Z,2.75
2023-03-11T11:21:03.507Z,2.89
2023-03-11T11:26:17.852Z,3.12
2023-03-11T11:31:26.029Z,3.05
2023-03-11T11:36:34.002Z,3.69
2023-03-11T11:41:43.595Z,3.85
2023-03-11T11:46:56.352Z,2.75
2023-03-11T11:52:07.934Z,3.30
2023-03-11T11:57:15.958Z,3.02
2023-03-11T12:02:42.245Z,3.12
2023-03-11T12:08:00.248Z,4.03
2023-03-11T12:13:35.650Z,3.07
2023-03-11T12:18:45.499Z,2.18
2023-03-11T12:24:01.299Z,1.14
2023-03-11T12:29:32.181Z,1.64
2023-03-11T12:35:33.151Z,1.82
2023-03-11T12:41:33.761Z,2.24
2023-03-11T12:47:24.344Z,2.28
2023-03-11T12:53:03.918Z,2.20
2023-03-11T12:59:00.968Z,2.27
2023-03-11T13:04:23.424Z,2.28
2023-03-11T13:09:54.365Z,2.34
2023-03-11T13:15:58.511Z,1.83
2023-03-11T13:21:42.407Z,1.76
2023-03-11T13:27:04.515Z,1.50
2023-03-11T13:32:35.910Z,1.21
2023-03-11T13:37:50.999Z,1.11
2023-03-11T13:43:04.129Z,1.03
2023-03-11T13:48:16.097Z,0.80
2023-03-11T13:53:29.336Z,0.81
2023-03-11T13:58:42.795Z,0.55
2023-03-11T14:03:50.368Z,0.43
2023-03-11T14:08:57.145Z,0.06
2023-03-11T14:14:03.762Z,-0.09
2023-03-11T14:19:16.774Z,-0.15
2023-03-11T14:24:27.020Z,-0.17
2023-03-11T14:29:53.828Z,-0.29
2023-03-11T14:35:04.213Z,-0.44
2023-03-11T14:40:25.478Z,-0.48
2023-03-11T14:45:36.525Z,-0.51
2023-03-11T14:50:40.943Z,-0.78
2023-03-11T14:55:51.324Z,-0.56
2023-03-11T15:01:02.587Z,-0.66
2023-03-11T15:06:10.170Z,-0.76
2023-03-11T15:11:25.629Z,-0.88
2023-03-11T15:16:36.773Z,-0.83
2023-03-11T15:21:47.545Z,-0.98
2023-03-11T15:26:56.557Z,-1.01
2023-03-11T15:32:22.497Z,-1.00
2023-03-11T15:37:26.886Z,-1.23
2023-03-11T15:42:34.142Z,-1.03
2023-03-11T15:47:40.638Z,-1.11
2023-03-11T15:52:45.042Z,-1.16
2023-03-11T15:57:50.402Z,-1.11
2023-03-11T16:02:56.381Z,-1.05
2023-03-11T16:08:00.642Z,-1.12
2023-03-11T16:13:07.969Z,-1.10
2023-03-11T16:18:13.906Z,-1.27
2023-03-11T16:23:21.440Z,-1.34
2023-03-11T16:28:25.991Z,-1.20
2023-03-11T16:33:31.631Z,-1.17
2023-03-11T16:38:44.026Z,-1.01
2023-03-11T16:43:48.910Z,-1.26
2023-03-11T16:49:05.493Z,-1.40
2023-03-11T17:16:12.697Z,-1.26
2023-03-11T17:21:42.473Z,-1.45
2023-03-11T17:26:51.458Z,-1.45
2023-03-11T17:31:57.645Z,-1.17
2023-03-11T17:37:02.239Z,-1.53
2023-03-11T17:42:07.029Z,-1.19
2023-03-11T17:47:20.134Z,-1.50
2023-03-11T17:52:25.342Z,-1.45
2023-03-11T17:57:33.586Z,-1.74
2023-03-11T18:04:09.793Z,-1.70
2023-03-11T18:18:09.862Z,-1.66
2023-03-11T19:02:29.982Z,-1.43
2023-03-11T19:08:21.989Z,-1.24
2023-03-11T19:13:40.760Z,-1.57
2023-03-11T19:18:57.421Z,-1.39
2023-03-11T19:38:55.069Z,-1.81
2023-03-11T19:44:01.679Z,-1.66
2023-03-11T19:49:06.338Z,-1.89
2023-03-11T19:54:32.856Z,-1.77
2023-03-11T19:59:43.214Z,-1.85
2023-03-11T20:04:50.627Z,-2.25
2023-03-11T20:10:03.980Z,-1.96
2023-03-11T20:15:10.229Z,-1.93
2023-03-11T20:20:22.968Z,-1.87
2023-03-11T20:25:48.883Z,-1.70
2023-03-11T20:30:53.596Z,-2.02
2023-03-11T20:36:08.779Z,-1.97
2023-03-11T20:41:15.618Z,-1.98
2023-03-11T20:46:20.810Z,-1.89
2023-03-11T20:51:25.485Z,-2.04
2023-03-11T20:56:32.843Z,-1.97
2023-03-11T21:01:38.256Z,-1.98
2023-03-11T21:06:42.669Z,-1.96
2023-03-11T21:11:48.721Z,-2.02
2023-03-11T21:16:53.365Z,-2.07
2023-03-11T21:21:57.972Z,-2.01
2023-03-11T21:27:03.791Z,-2.04
2023-03-11T21:32:08.158Z,-1.90
2023-03-11T21:37:13.135Z,-2.02
2023-03-11T21:42:29.099Z,-2.05
2023-03-11T21:47:37.327Z,-1.72
2023-03-11T21:52:47.136Z,-1.90
2023-03-11T21:58:01.598Z,-1.90
2023-03-11T22:03:10.582Z,-2.07
2023-03-11T22:08:47.275Z,-2.22
2023-03-11T22:14:13.802Z,-1.85
2023-03-11T22:41:51.174Z,-2.10
2023-03-11T22:46:58.433Z,-2.24
2023-03-11T22:53:01.190Z,-2.00
